Time;durP1;ratioP1;P1;durP2;ratioP2;P2;SDS_P1;SDS_P2;PMS_P1;PMS_P2;Temp;Humidity;BMP_temperature;BMP_pressure;BME280_temperature;BME280_humidity;BME280_pressure;Samples;Min_cycle;Max_cycle;Signal;HPM_P1;HPM_P2
2022/12/07 00:01:23;;;;;;;12.90;4.57;;;2.80;99.90;;;;;;5075759;28;20091;-83
2022/12/07 00:03:50;;;;;;;7.78;4.18;;;2.80;99.90;;;;;;5093173;28;20465;-82
2022/12/07 00:06:16;;;;;;;11.50;4.38;;;2.90;99.90;;;;;;5075679;28;20484;-82
2022/12/07 00:08:42;;;;;;;9.18;3.78;;;3.00;99.90;;;;;;5094021;28;20135;-82
2022/12/07 00:11:15;;;;;;;8.45;4.00;;;2.80;99.90;;;;;;5075556;28;20143;-82
2022/12/07 00:13:41;;;;;;;13.70;4.28;;;3.40;99.90;;;;;;5094116;28;20079;-82
2022/12/07 00:16:14;;;;;;;14.90;3.35;;;2.90;99.90;;;;;;5076314;28;20076;-82
2022/12/07 00:18:40;;;;;;;12.85;3.10;;;3.10;99.90;;;;;;5077540;28;20127;-83
2022/12/07 00:21:13;;;;;;;8.07;2.92;;;3.30;99.90;;;;;;5064715;28;20095;-83
2022/12/07 00:23:39;;;;;;;7.30;3.05;;;3.10;99.90;;;;;;5102640;28;20032;-84
2022/12/07 00:26:27;;;;;;;14.57;3.10;;;4.50;99.90;;;;;;5101755;28;20050;-85
2022/12/07 00:28:55;;;;;;;6.07;2.42;;;3.20;99.90;;;;;;5093351;28;20056;-81
2022/12/07 00:31:21;;;;;;;8.48;2.88;;;3.00;99.90;;;;;;5095704;28;20040;-81
2022/12/07 00:33:47;;;;;;;11.82;2.88;;;3.00;99.90;;;;;;5077235;28;20052;-83
2022/12/07 00:36:16;;;;;;;11.77;3.15;;;3.00;99.90;;;;;;5075647;28;20052;-82
2022/12/07 00:38:42;;;;;;;7.75;2.20;;;3.00;99.90;;;;;;5093389;28;20087;-83
2022/12/07 00:41:13;;;;;;;8.18;2.20;;;3.00;99.90;;;;;;5058399;28;20136;-82
2022/12/07 00:43:39;;;;;;;8.63;2.00;;;2.90;99.90;;;;;;5075586;28;20059;-83
2022/12/07 00:46:05;;;;;;;9.43;2.13;;;3.00;99.90;;;;;;5075609;28;20071;-83
2022/12/07 00:48:30;;;;;;;8.23;1.90;;;3.40;99.90;;;;;;5076325;28;20570;-84
2022/12/07 00:50:56;;;;;;;6.40;2.00;;;3.00;99.90;;;;;;5094459;28;20043;-83
2022/12/07 00:53:22;;;;;;;8.70;2.00;;;4.00;99.90;;;;;;5076786;28;20052;-82
2022/12/07 00:55:48;;;;;;;11.23;2.08;;;2.90;99.90;;;;;;5059797;28;20052;-82
2022/12/07 00:58:14;;;;;;;8.50;2.00;;;2.80;99.90;;;;;;5097043;28;20048;-82
2022/12/07 01:00:40;;;;;;;7.20;1.77;;;3.10;99.90;;;;;;5096918;28;20089;-82
2022/12/07 01:03:06;;;;;;;10.70;2.00;;;2.80;99.90;;;;;;5084583;28;20048;-80
2022/12/07 01:05:32;;;;;;;5.30;1.75;;;2.80;99.90;;;;;;5106047;28;20090;-82
2022/12/07 01:07:58;;;;;;;9.00;1.92;;;4.30;99.90;;;;;;5085803;28;20048;-82
2022/12/07 01:10:23;;;;;;;4.13;1.90;;;2.90;99.90;;;;;;5105110;28;20036;-81
2022/12/07 01:12:49;;;;;;;9.60;2.55;;;2.90;99.90;;;;;;5102914;28;20051;-83
2022/12/07 01:15:15;;;;;;;11.10;2.40;;;3.60;99.90;;;;;;5095370;28;20552;-82
2022/12/07 01:17:40;;;;;;;8.25;2.28;;;2.90;99.90;;;;;;5074537;28;20059;-82
2022/12/07 01:20:07;;;;;;;5.47;1.90;;;3.70;99.90;;;;;;5092660;28;20044;-83
2022/12/07 01:22:40;;;;;;;13.10;2.22;;;2.80;99.90;;;;;;5074389;28;20044;-83
2022/12/07 01:25:06;;;;;;;8.32;2.08;;;2.90;99.90;;;;;;5092422;28;20040;-82
2022/12/07 01:27:33;;;;;;;3.92;2.08;;;2.90;99.90;;;;;;5058269;28;20486;-81
2022/12/07 01:29:59;;;;;;;4.28;1.85;;;2.90;99.90;;;;;;5074742;28;20082;-82
2022/12/07 01:32:24;;;;;;;11.27;2.00;;;4.30;99.90;;;;;;5075973;28;20091;-83
2022/12/07 01:34:50;;;;;;;6.00;1.92;;;2.90;99.90;;;;;;5062085;28;20048;-82
2022/12/07 01:37:15;;;;;;;7.35;2.20;;;3.00;99.90;;;;;;5119631;28;20028;-83
2022/12/07 01:39:41;;;;;;;9.73;2.50;;;2.90;99.90;;;;;;5099981;28;20036;-86
2022/12/07 01:42:11;;;;;;;7.43;2.38;;;3.00;99.90;;;;;;5114239;28;20048;-82
2022/12/07 01:45:17;;;;;;;9.27;1.92;;;2.80;99.90;;;;;;5094154;28;20073;-82
2022/12/07 01:47:45;;;;;;;10.18;1.80;;;2.80;99.90;;;;;;5032413;28;20049;-83
2022/12/07 01:50:11;;;;;;;7.95;1.75;;;4.00;99.90;;;;;;5013270;28;20053;-82
2022/12/07 01:52:37;;;;;;;9.02;1.88;;;2.70;99.90;;;;;;5060224;28;20064;-82
2022/12/07 01:55:10;;;;;;;4.47;1.70;;;3.50;99.90;;;;;;5073918;28;20043;-83
2022/12/07 01:57:38;;;;;;;11.27;1.83;;;2.60;99.90;;;;;;5075007;28;20131;-82
2022/12/07 02:00:05;;;;;;;5.90;1.90;;;2.60;99.90;;;;;;5074177;28;20044;-83
2022/12/07 02:02:33;;;;;;;4.80;1.92;;;2.60;99.90;;;;;;5073265;28;20131;-82
2022/12/07 02:05:00;;;;;;;4.95;1.55;;;2.70;99.90;;;;;;5057255;28;20044;-82
2022/12/07 02:07:25;;;;;;;10.90;1.90;;;2.90;99.90;;;;;;5074155;28;20051;-82
2022/12/07 02:09:51;;;;;;;3.75;1.58;;;2.90;99.90;;;;;;5056654;28;20051;-83
2022/12/07 02:12:16;;;;;;;6.32;1.60;;;3.70;99.90;;;;;;5092199;28;20742;-82
2022/12/07 02:14:42;;;;;;;12.82;2.08;;;3.10;99.90;;;;;;5073792;28;20823;-84
2022/12/07 02:17:18;;;;;;;7.97;1.50;;;3.20;99.90;;;;;;5073603;28;20816;-83
2022/12/07 02:20:09;;;;;;;9.55;1.60;;;3.20;99.90;;;;;;5074657;28;20408;-82
2022/12/07 02:23:00;;;;;;;2.92;1.20;;;3.20;99.90;;;;;;5091484;28;20040;-82
2022/12/07 02:25:44;;;;;;;7.07;1.48;;;3.20;99.90;;;;;;5076024;28;20048;-82
2022/12/07 02:28:37;;;;;;;8.10;1.60;;;3.20;99.90;;;;;;5091992;28;20047;-82
2022/12/07 02:31:14;;;;;;;9.57;1.45;;;3.20;99.90;;;;;;5091528;28;20677;-82
2022/12/07 02:33:43;;;;;;;5.45;1.60;;;3.20;99.90;;;;;;5073692;28;20495;-82
2022/12/07 02:36:12;;;;;;;7.63;1.40;;;3.20;99.90;;;;;;5073678;28;20052;-83
2022/12/07 02:38:46;;;;;;;4.50;1.13;;;3.00;99.90;;;;;;5073373;28;20130;-82
2022/12/07 02:41:21;;;;;;;5.63;1.48;;;3.00;99.90;;;;;;5073430;28;20093;-82
2022/12/07 02:43:55;;;;;;;10.23;1.33;;;2.90;99.90;;;;;;5057484;28;20055;-83
2022/12/07 02:46:22;;;;;;;4.30;1.27;;;2.90;99.90;;;;;;5058792;28;20052;-82
2022/12/07 02:48:48;;;;;;;6.55;1.50;;;2.90;99.90;;;;;;5082689;28;20277;-83
2022/12/07 02:51:14;;;;;;;8.38;1.23;;;2.90;99.90;;;;;;5100341;28;20028;-86
2022/12/07 02:53:43;;;;;;;5.35;1.23;;;3.30;99.90;;;;;;5098438;28;20052;-83
2022/12/07 02:56:11;;;;;;;9.32;1.50;;;3.50;99.90;;;;;;5086324;28;20048;-82
2022/12/07 02:58:59;;;;;;;8.77;1.63;;;3.00;99.90;;;;;;5091969;28;20129;-81
2022/12/07 03:01:54;;;;;;;9.77;1.80;;;3.00;99.90;;;;;;5090959;28;20052;-82
2022/12/07 03:04:29;;;;;;;5.25;1.23;;;3.10;99.90;;;;;;5100775;28;20112;-83
2022/12/07 03:07:01;;;;;;;8.65;1.67;;;3.10;99.90;;;;;;5098555;28;20066;-83
2022/12/07 03:09:28;;;;;;;4.63;1.20;;;3.50;99.90;;;;;;5073111;28;20054;-83
2022/12/07 03:12:32;;;;;;;5.10;1.25;;;3.70;99.90;;;;;;5072772;28;20515;-84
2022/12/07 03:15:36;;;;;;;6.40;1.30;;;3.50;99.90;;;;;;5072717;28;20087;-83
2022/12/07 03:18:05;;;;;;;2.78;1.02;;;3.50;99.90;;;;;;5090856;28;20094;-83
2022/12/07 03:20:31;;;;;;;4.25;1.52;;;3.50;99.90;;;;;;5074208;28;20472;-83
2022/12/07 03:22:56;;;;;;;3.38;1.20;;;3.50;99.90;;;;;;5073747;28;20048;-82
2022/12/07 03:25:22;;;;;;;6.40;1.42;;;3.40;99.90;;;;;;5073292;28;20043;-82
2022/12/07 03:28:02;;;;;;;5.82;1.20;;;3.40;99.90;;;;;;5091815;28;20402;-85
2022/12/07 03:30:48;;;;;;;6.00;1.30;;;3.40;99.90;;;;;;5072865;28;20051;-83
2022/12/07 03:33:20;;;;;;;4.70;1.08;;;3.50;99.90;;;;;;5072241;28;20503;-81
2022/12/07 03:36:00;;;;;;;4.68;1.30;;;3.50;99.90;;;;;;5072912;28;20414;-82
2022/12/07 03:38:51;;;;;;;12.13;3.00;;;3.50;99.90;;;;;;5056608;28;20056;-83
2022/12/07 03:41:22;;;;;;;4.85;1.20;;;3.40;99.90;;;;;;5060650;28;20457;-82
2022/12/07 03:43:48;;;;;;;4.47;1.20;;;3.40;99.90;;;;;;5056275;28;20131;-83
2022/12/07 03:46:28;;;;;;;3.80;1.20;;;3.50;99.90;;;;;;5072469;28;20781;-82
2022/12/07 03:49:29;;;;;;;7.88;1.27;;;3.30;99.90;;;;;;5090775;28;20055;-82
2022/12/07 03:52:03;;;;;;;4.30;1.33;;;3.40;99.90;;;;;;5090811;28;20498;-82
2022/12/07 03:54:32;;;;;;;10.35;1.30;;;3.50;99.90;;;;;;5072021;28;20123;-82
2022/12/07 03:56:58;;;;;;;3.53;1.00;;;3.50;99.90;;;;;;5090514;28;20051;-83
2022/12/07 03:59:23;;;;;;;4.43;1.10;;;3.50;99.90;;;;;;5074177;28;20044;-82
2022/12/07 04:01:57;;;;;;;7.25;1.25;;;4.80;99.90;;;;;;5078106;28;20039;-84
2022/12/07 04:04:24;;;;;;;3.20;1.00;;;3.80;99.90;;;;;;5083934;28;20039;-84
2022/12/07 04:06:49;;;;;;;6.18;1.63;;;4.60;99.90;;;;;;5115698;28;20056;-87
2022/12/07 04:09:16;;;;;;;5.78;1.20;;;3.60;99.90;;;;;;5094803;28;20492;-83
2022/12/07 04:11:42;;;;;;;6.95;1.20;;;3.60;99.90;;;;;;5094676;28;20055;-82
2022/12/07 04:14:20;;;;;;;6.53;1.13;;;3.50;99.90;;;;;;5097996;28;20040;-82
2022/12/07 04:16:59;;;;;;;3.50;1.08;;;3.50;99.90;;;;;;5080943;28;20377;-83
2022/12/07 04:19:29;;;;;;;8.73;1.08;;;3.50;99.90;;;;;;5099580;28;20040;-81
2022/12/07 04:21:55;;;;;;;1.92;1.08;;;3.40;99.90;;;;;;5073159;28;20059;-81
2022/12/07 04:24:21;;;;;;;8.55;1.30;;;3.40;99.90;;;;;;5094111;28;20107;-83
2022/12/07 04:26:47;;;;;;;4.90;1.00;;;3.40;99.90;;;;;;5093823;28;20074;-83
2022/12/07 04:29:13;;;;;;;8.85;1.25;;;3.70;99.90;;;;;;5076927;28;20472;-82
2022/12/07 04:31:39;;;;;;;7.75;1.40;;;3.40;99.90;;;;;;5059659;28;20099;-82
2022/12/07 04:34:05;;;;;;;6.93;1.25;;;4.20;99.90;;;;;;5093971;28;20441;-82
2022/12/07 04:36:31;;;;;;;7.50;1.23;;;3.20;99.90;;;;;;5093988;28;20044;-82
2022/12/07 04:38:56;;;;;;;5.70;1.13;;;3.70;99.90;;;;;;5093502;28;20071;-82
2022/12/07 04:41:28;;;;;;;6.32;1.35;;;3.80;99.90;;;;;;5092551;28;20055;-82
2022/12/07 04:44:00;;;;;;;8.25;1.77;;;2.90;99.90;;;;;;5059745;28;20048;-82
2022/12/07 04:46:25;;;;;;;5.63;1.30;;;2.90;99.90;;;;;;5093485;28;20081;-82
2022/12/07 04:48:52;;;;;;;7.00;1.00;;;2.80;99.90;;;;;;5058829;28;20631;-82
2022/12/07 04:51:25;;;;;;;9.02;1.48;;;2.90;99.90;;;;;;5093907;28;20188;-83
2022/12/07 04:53:50;;;;;;;8.23;1.70;;;2.80;99.90;;;;;;5075440;28;20538;-82
2022/12/07 04:56:16;;;;;;;7.97;1.45;;;2.70;99.90;;;;;;5058667;28;20070;-82
2022/12/07 04:58:43;;;;;;;8.20;1.60;;;4.00;99.90;;;;;;5058601;28;20083;-83
2022/12/07 05:01:09;;;;;;;3.50;1.35;;;2.70;99.90;;;;;;5075106;28;20047;-82
2022/12/07 05:03:36;;;;;;;5.50;1.52;;;2.60;99.90;;;;;;5092686;28;20056;-83
2022/12/07 05:06:02;;;;;;;10.82;1.67;;;2.60;99.90;;;;;;5092785;28;20055;-82
2022/12/07 05:08:28;;;;;;;8.60;1.42;;;2.50;99.90;;;;;;5092694;28;20078;-82
2022/12/07 05:10:53;;;;;;;11.77;1.92;;;2.50;99.90;;;;;;5092692;28;20048;-83
2022/12/07 05:13:19;;;;;;;9.82;1.83;;;2.70;99.90;;;;;;5095104;28;20067;-82
2022/12/07 05:15:46;;;;;;;7.85;1.50;;;3.90;99.90;;;;;;5103308;28;20042;-83
2022/12/07 05:18:12;;;;;;;7.72;1.40;;;2.90;99.90;;;;;;5101551;28;20036;-87
2022/12/07 05:20:39;;;;;;;7.80;1.35;;;4.00;99.90;;;;;;5117362;28;20039;-85
2022/12/07 05:23:04;;;;;;;7.25;1.38;;;3.10;99.90;;;;;;5087575;28;20047;-82
2022/12/07 05:25:30;;;;;;;8.00;1.23;;;3.70;99.90;;;;;;5074747;28;20040;-82
2022/12/07 05:27:56;;;;;;;10.05;1.50;;;2.90;99.90;;;;;;5074407;28;20054;-83
2022/12/07 05:30:22;;;;;;;5.50;1.20;;;3.80;99.90;;;;;;5074787;28;20170;-83
2022/12/07 05:32:48;;;;;;;8.77;1.60;;;2.70;99.90;;;;;;5092350;28;20052;-83
2022/12/07 05:35:13;;;;;;;10.80;1.60;;;2.60;99.90;;;;;;5074103;28;20402;-82
2022/12/07 05:37:39;;;;;;;8.93;1.88;;;2.50;99.90;;;;;;5092453;28;20050;-81
2022/12/07 05:40:05;;;;;;;7.55;2.05;;;2.40;99.90;;;;;;5091817;28;20043;-82
2022/12/07 05:42:31;;;;;;;9.00;1.60;;;2.40;99.90;;;;;;5092946;28;20047;-85
2022/12/07 05:44:56;;;;;;;8.05;1.88;;;2.30;99.90;;;;;;5092889;28;20380;-83
2022/12/07 05:47:22;;;;;;;11.38;1.80;;;2.30;99.90;;;;;;5093331;28;20050;-83
2022/12/07 05:49:48;;;;;;;7.43;1.60;;;2.20;99.90;;;;;;5075352;28;20094;-82
2022/12/07 05:52:14;;;;;;;3.80;1.15;;;2.20;99.90;;;;;;5058063;28;20050;-83
2022/12/07 05:54:39;;;;;;;10.75;1.63;;;2.90;99.90;;;;;;5073986;28;20426;-83
2022/12/07 05:57:05;;;;;;;7.72;1.73;;;3.40;99.90;;;;;;5092450;28;20084;-82
2022/12/07 05:59:30;;;;;;;7.25;1.30;;;2.10;99.90;;;;;;5107608;28;20466;-83
2022/12/07 06:01:57;;;;;;;8.38;1.30;;;2.40;99.90;;;;;;5112400;28;20036;-82
2022/12/07 06:04:25;;;;;;;5.30;1.25;;;2.30;99.90;;;;;;5112072;28;20067;-83
2022/12/07 06:06:51;;;;;;;9.98;1.20;;;2.10;99.90;;;;;;5094066;28;20079;-82
2022/12/07 06:09:18;;;;;;;8.73;1.42;;;2.00;99.90;;;;;;5093747;28;20058;-82
2022/12/07 06:14:30;;;;;;;6.88;1.40;;;2.00;99.90;;;;;;5112714;28;20100;-83
2022/12/07 06:16:56;;;;;;;8.35;1.70;;;2.00;99.90;;;;;;5093970;28;20048;-82
2022/12/07 06:19:22;;;;;;;5.78;1.50;;;2.00;99.90;;;;;;5094034;28;20490;-82
2022/12/07 06:21:47;;;;;;;8.23;1.70;;;2.00;99.90;;;;;;5112012;28;20043;-82
2022/12/07 06:24:14;;;;;;;10.90;1.80;;;2.00;99.90;;;;;;5113756;28;20051;-83
2022/12/07 06:26:39;;;;;;;8.63;1.77;;;1.90;99.90;;;;;;5096191;28;20466;-83
2022/12/07 06:29:05;;;;;;;7.53;1.80;;;2.50;99.90;;;;;;5072137;28;20071;-84
2022/12/07 06:31:31;;;;;;;5.28;1.50;;;2.30;99.90;;;;;;5138189;28;20027;-84
2022/12/07 06:34:00;;;;;;;11.95;1.60;;;2.10;99.90;;;;;;5119196;28;20044;-87
2022/12/07 06:36:26;;;;;;;11.32;1.85;;;2.00;99.90;;;;;;5113032;28;20090;-82
2022/12/07 06:38:52;;;;;;;10.68;2.13;;;2.60;99.90;;;;;;5111534;28;20086;-83
2022/12/07 06:41:18;;;;;;;8.65;1.80;;;2.10;99.90;;;;;;5111473;28;20100;-82
2022/12/07 06:43:43;;;;;;;5.80;2.35;;;2.10;99.90;;;;;;5111978;28;20049;-82
2022/12/07 06:46:09;;;;;;;10.90;2.88;;;3.00;99.90;;;;;;5112322;28;20122;-88
2022/12/07 06:48:35;;;;;;;9.70;2.97;;;2.30;99.90;;;;;;5077987;28;20051;-88
2022/12/07 06:51:00;;;;;;;11.70;2.42;;;3.30;99.90;;;;;;5111283;28;20063;-83
2022/12/07 06:53:26;;;;;;;11.52;2.00;;;2.40;99.90;;;;;;5093228;28;20047;-87
2022/12/07 06:55:52;;;;;;;12.80;2.38;;;2.50;99.90;;;;;;5111221;28;20055;-84
2022/12/07 06:58:17;;;;;;;15.77;2.70;;;2.50;99.90;;;;;;5093708;28;20108;-83
2022/12/07 07:00:44;;;;;;;11.48;2.50;;;2.50;99.90;;;;;;5061020;28;20061;-87
2022/12/07 07:03:09;;;;;;;11.77;2.50;;;2.60;99.90;;;;;;5071733;28;20094;-88
2022/12/07 07:05:35;;;;;;;8.07;2.03;;;2.60;99.90;;;;;;5082101;28;20047;-87
2022/12/07 07:08:01;;;;;;;5.82;1.35;;;3.00;99.90;;;;;;5101271;28;20510;-87
2022/12/07 07:10:26;;;;;;;6.47;1.58;;;2.50;99.90;;;;;;5101628;28;20047;-87
2022/12/07 07:12:52;;;;;;;7.38;1.73;;;2.80;99.90;;;;;;5081869;28;20516;-87
2022/12/07 07:15:17;;;;;;;10.63;2.25;;;2.40;99.90;;;;;;5067826;28;20135;-87
2022/12/07 07:17:43;;;;;;;5.78;1.60;;;3.10;99.90;;;;;;5093328;28;20043;-87
2022/12/07 07:20:09;;;;;;;4.70;1.60;;;2.80;99.90;;;;;;5093540;28;20123;-88
2022/12/07 07:22:35;;;;;;;5.63;1.30;;;2.20;99.90;;;;;;5076413;28;20059;-88
2022/12/07 07:25:01;;;;;;;5.30;1.45;;;2.90;99.90;;;;;;5112008;28;20039;-87
2022/12/07 07:27:26;;;;;;;11.60;1.58;;;2.10;99.90;;;;;;5093504;28;20159;-84
2022/12/07 07:29:52;;;;;;;8.48;1.63;;;2.10;99.90;;;;;;5111442;28;20154;-84
2022/12/07 07:32:18;;;;;;;11.90;1.73;;;2.10;99.90;;;;;;5079112;28;20127;-83
2022/12/07 07:34:43;;;;;;;9.52;2.42;;;2.10;99.90;;;;;;5117553;28;20043;-85
2022/12/07 07:37:10;;;;;;;8.43;1.60;;;2.10;99.90;;;;;;5106167;28;20044;-82
2022/12/07 07:39:36;;;;;;;6.20;2.88;;;2.20;99.90;;;;;;5133760;28;20044;-81
2022/12/07 07:42:02;;;;;;;12.23;2.67;;;2.20;99.90;;;;;;5113183;28;20180;-84
2022/12/07 07:44:27;;;;;;;10.85;3.17;;;2.40;99.90;;;;;;5141762;28;20032;-83
2022/12/07 07:46:54;;;;;;;6.60;1.50;;;2.60;99.90;;;;;;5140530;28;20091;-87
2022/12/07 07:49:20;;;;;;;9.15;2.10;;;2.70;99.90;;;;;;5103826;28;20035;-83
2022/12/07 07:51:45;;;;;;;6.18;1.42;;;3.10;99.90;;;;;;5100711;28;20070;-85
2022/12/07 07:54:11;;;;;;;7.95;1.80;;;3.50;99.90;;;;;;5118224;28;20066;-84
2022/12/07 07:56:37;;;;;;;5.50;1.58;;;2.90;99.90;;;;;;5115462;28;20055;-84
2022/12/07 07:59:02;;;;;;;11.23;2.05;;;3.30;99.90;;;;;;5115926;28;20555;-84
2022/12/07 08:01:28;;;;;;;6.80;2.70;;;2.80;99.90;;;;;;5080220;28;20123;-85
2022/12/07 08:03:53;;;;;;;3.20;2.40;;;2.80;99.90;;;;;;5114747;28;20091;-85
2022/12/07 08:06:19;;;;;;;5.10;1.60;;;2.80;99.90;;;;;;5114634;28;20126;-84
2022/12/07 08:08:45;;;;;;;3.78;1.42;;;2.80;99.90;;;;;;5114809;28;20043;-85
2022/12/07 08:11:11;;;;;;;4.50;1.40;;;3.50;99.90;;;;;;5113846;28;20071;-84
2022/12/07 08:13:36;;;;;;;3.95;1.55;;;2.70;99.90;;;;;;5096334;28;20047;-85
2022/12/07 08:16:07;;;;;;;5.28;1.50;;;2.60;99.90;;;;;;5079557;28;20174;-85
2022/12/07 08:18:38;;;;;;;9.85;1.85;;;2.60;99.90;;;;;;5084978;28;20087;-84
2022/12/07 08:21:03;;;;;;;5.82;1.80;;;2.60;99.90;;;;;;5098483;28;20088;-85
2022/12/07 08:23:29;;;;;;;9.52;1.60;;;2.50;99.90;;;;;;5114372;28;20487;-86
2022/12/07 08:25:55;;;;;;;12.02;1.90;;;2.50;99.90;;;;;;5079340;28;20035;-82
2022/12/07 08:28:21;;;;;;;4.63;1.63;;;2.50;99.90;;;;;;5114579;28;20475;-85
2022/12/07 08:30:46;;;;;;;6.22;1.63;;;2.40;99.90;;;;;;5046025;28;20138;-85
2022/12/07 08:33:12;;;;;;;4.97;1.73;;;3.60;99.90;;;;;;5096020;28;20051;-85
2022/12/07 08:35:37;;;;;;;8.73;1.88;;;3.40;99.90;;;;;;5095868;28;20052;-85
2022/12/07 08:38:03;;;;;;;5.45;1.70;;;2.60;99.90;;;;;;5113945;28;20052;-85
2022/12/07 08:40:29;;;;;;;7.07;1.90;;;2.80;99.90;;;;;;5095240;28;20047;-85
2022/12/07 08:42:55;;;;;;;6.22;1.98;;;3.40;99.90;;;;;;5113969;28;20062;-85
2022/12/07 08:45:21;;;;;;;12.98;2.50;;;3.10;99.90;;;;;;5114019;28;20047;-85
2022/12/07 08:47:52;;;;;;;7.88;2.08;;;3.30;99.90;;;;;;5112849;28;20060;-84
2022/12/07 08:50:18;;;;;;;8.70;2.20;;;3.70;99.90;;;;;;5114106;28;20054;-85
2022/12/07 08:52:44;;;;;;;7.53;2.55;;;4.90;99.90;;;;;;5096672;28;20039;-85
2022/12/07 08:55:11;;;;;;;5.55;2.47;;;4.60;99.90;;;;;;5107835;28;20054;-84
2022/12/07 08:57:36;;;;;;;10.32;2.10;;;5.00;99.90;;;;;;5108953;28;20016;-84
2022/12/07 09:00:03;;;;;;;6.35;1.92;;;5.70;99.90;;;;;;5108888;28;20098;-85
2022/12/07 09:02:30;;;;;;;5.50;1.67;;;4.60;99.90;;;;;;5108585;28;20024;-84
2022/12/07 09:04:56;;;;;;;8.00;2.50;;;4.70;99.90;;;;;;5103282;28;20055;-84
2022/12/07 09:07:22;;;;;;;9.70;2.22;;;5.00;99.90;;;;;;5105015;28;20048;-83
2022/12/07 09:09:47;;;;;;;5.85;1.60;;;4.80;99.90;;;;;;5090741;28;20078;-84
2022/12/07 09:12:13;;;;;;;8.27;1.92;;;5.00;99.90;;;;;;5113543;28;20048;-84
2022/12/07 09:14:39;;;;;;;8.23;2.00;;;4.30;99.90;;;;;;5095563;28;20510;-84
2022/12/07 09:17:10;;;;;;;6.78;1.90;;;4.10;99.90;;;;;;5095263;28;20059;-84
2022/12/07 09:19:36;;;;;;;10.10;3.22;;;4.00;99.90;;;;;;5094720;28;20562;-84
2022/12/07 09:22:02;;;;;;;9.48;2.53;;;3.80;99.90;;;;;;5113129;28;20048;-83
2022/12/07 09:24:27;;;;;;;4.60;1.83;;;3.60;99.90;;;;;;5113219;28;20159;-84
2022/12/07 09:26:54;;;;;;;7.82;2.20;;;3.60;99.90;;;;;;5114374;28;20069;-84
2022/12/07 09:29:20;;;;;;;5.13;2.20;;;3.60;99.90;;;;;;5113822;28;20047;-84
2022/12/07 09:31:46;;;;;;;8.32;2.25;;;3.80;99.90;;;;;;5113519;28;20089;-83
2022/12/07 09:34:11;;;;;;;5.93;1.95;;;3.80;99.90;;;;;;5114223;28;20048;-83
2022/12/07 09:36:37;;;;;;;6.93;3.40;;;3.90;99.90;;;;;;5096212;28;20054;-83
2022/12/07 09:39:04;;;;;;;7.93;1.80;;;4.00;99.90;;;;;;5095444;28;20061;-83
2022/12/07 09:41:30;;;;;;;7.28;2.05;;;4.30;99.90;;;;;;5081933;28;20046;-84
2022/12/07 09:44:02;;;;;;;6.03;1.98;;;4.80;99.90;;;;;;5074964;28;20100;-84
2022/12/07 09:46:28;;;;;;;6.82;1.92;;;4.40;99.90;;;;;;5058584;28;20048;-84
2022/12/07 09:48:53;;;;;;;9.60;2.00;;;4.50;99.90;;;;;;5074471;28;20097;-84
2022/12/07 09:51:20;;;;;;;6.88;2.22;;;5.50;99.90;;;;;;5093428;28;20105;-84
2022/12/07 09:53:46;;;;;;;10.27;2.00;;;5.00;99.90;;;;;;5042112;28;20067;-85
2022/12/07 09:56:13;;;;;;;4.32;1.60;;;5.00;99.90;;;;;;5057860;28;20056;-85
2022/12/07 09:58:39;;;;;;;7.15;1.85;;;5.00;99.90;;;;;;5092375;28;20476;-85
2022/12/07 10:01:16;;;;;;;11.50;2.55;;;4.90;99.90;;;;;;5074251;28;20044;-84
2022/12/07 10:03:50;;;;;;;8.98;2.00;;;4.70;99.90;;;;;;5091917;28;20060;-84
2022/12/07 10:06:15;;;;;;;5.95;2.55;;;4.60;99.90;;;;;;5059309;28;20055;-84
2022/12/07 10:08:43;;;;;;;7.47;2.25;;;4.60;99.90;;;;;;5084366;28;20028;-84
2022/12/07 10:11:10;;;;;;;6.18;2.20;;;4.50;99.90;;;;;;5100382;28;20028;-84
2022/12/07 10:13:37;;;;;;;6.95;1.95;;;4.80;99.90;;;;;;5116032;28;20083;-84
2022/12/07 10:16:02;;;;;;;7.85;1.75;;;4.50;99.90;;;;;;5105487;28;20389;-84
2022/12/07 10:18:36;;;;;;;13.30;2.40;;;4.50;99.90;;;;;;5095418;28;20051;-84
2022/12/07 10:21:09;;;;;;;7.22;1.73;;;4.50;99.90;;;;;;5092139;28;20407;-83
2022/12/07 10:23:36;;;;;;;5.70;1.92;;;4.50;99.90;;;;;;5057179;28;20134;-83
2022/12/07 10:26:28;;;;;;;7.45;2.42;;;4.80;99.90;;;;;;5073465;28;20060;-84
2022/12/07 10:28:54;;;;;;;6.85;1.88;;;4.50;99.90;;;;;;5084695;28;20099;-83
2022/12/07 10:31:21;;;;;;;7.55;2.20;;;4.60;99.90;;;;;;5091364;28;20047;-83
2022/12/07 10:33:58;;;;;;;5.78;1.80;;;4.60;99.90;;;;;;5067622;28;20051;-83
2022/12/07 10:36:30;;;;;;;8.48;2.00;;;4.60;99.90;;;;;;5095166;28;20047;-82
2022/12/07 10:39:15;;;;;;;6.97;1.77;;;4.90;99.90;;;;;;5088645;28;20048;-83
2022/12/07 10:42:01;;;;;;;6.88;1.48;;;4.60;99.90;;;;;;5109490;28;20067;-81
2022/12/07 10:44:28;;;;;;;5.93;2.20;;;4.60;99.90;;;;;;5098941;28;20468;-83
2022/12/07 10:47:06;;;;;;;6.07;2.40;;;4.80;99.90;;;;;;5104940;28;20043;-81
2022/12/07 10:49:45;;;;;;;2.53;1.60;;;4.70;99.90;;;;;;5132809;28;20052;-81
2022/12/07 10:52:21;;;;;;;4.85;1.33;;;4.80;99.90;;;;;;5115478;28;20055;-86
2022/12/07 10:55:29;;;;;;;7.10;1.67;;;4.90;99.90;;;;;;5100898;28;20128;-83
2022/12/07 10:58:06;;;;;;;4.10;1.33;;;4.90;99.90;;;;;;5063754;28;20088;-84
2022/12/07 11:00:59;;;;;;;5.20;1.60;;;5.00;99.90;;;;;;5112414;28;20047;-85
2022/12/07 11:03:44;;;;;;;8.73;1.90;;;5.00;99.90;;;;;;5112543;28;20108;-83
2022/12/07 11:06:25;;;;;;;4.53;1.27;;;5.10;99.90;;;;;;5111799;28;20059;-84
2022/12/07 11:09:22;;;;;;;4.75;1.52;;;5.20;99.90;;;;;;5093754;28;20055;-84
2022/12/07 11:12:02;;;;;;;4.13;1.55;;;5.20;99.90;;;;;;5093942;28;20071;-84
2022/12/07 11:14:33;;;;;;;9.25;1.95;;;5.20;99.90;;;;;;5093828;28;20058;-83
2022/12/07 11:17:05;;;;;;;8.00;1.90;;;5.10;99.90;;;;;;5095246;28;20090;-84
2022/12/07 11:19:40;;;;;;;6.20;2.00;;;5.20;99.90;;;;;;5100999;28;20048;-85
2022/12/07 11:22:09;;;;;;;5.30;1.60;;;5.20;99.90;;;;;;5135310;28;20028;-83
2022/12/07 11:25:16;;;;;;;6.30;2.50;;;5.10;99.90;;;;;;5123500;28;20035;-84
2022/12/07 11:27:52;;;;;;;3.92;1.60;;;5.10;99.90;;;;;;5137332;28;20051;-84
2022/12/07 11:30:22;;;;;;;9.77;2.38;;;5.10;99.90;;;;;;5099739;28;20054;-83
2022/12/07 11:33:09;;;;;;;6.68;1.92;;;5.10;99.90;;;;;;5084047;28;20048;-83
2022/12/07 11:35:46;;;;;;;11.23;2.42;;;5.00;99.90;;;;;;5069266;28;20134;-85
2022/12/07 11:38:16;;;;;;;8.55;1.90;;;5.60;99.90;;;;;;5091640;28;20043;-91
2022/12/07 11:40:45;;;;;;;9.45;1.65;;;4.90;99.90;;;;;;5070705;28;20122;-89
2022/12/07 11:43:26;;;;;;;3.80;1.60;;;4.80;99.90;;;;;;5054604;28;20039;-93
2022/12/07 11:46:03;;;;;;;7.03;1.60;;;4.60;99.90;;;;;;5088038;28;20052;-91
2022/12/07 11:48:34;;;;;;;1.88;0.95;;;4.50;99.90;;;;;;5089574;28;20050;-87
2022/12/07 11:51:01;;;;;;;3.55;1.05;;;4.30;99.90;;;;;;5086853;28;20082;-90
2022/12/07 11:53:28;;;;;;;2.78;1.13;;;4.20;99.90;;;;;;5070116;28;20048;-92
2022/12/07 11:56:14;;;;;;;5.65;1.05;;;4.20;99.90;;;;;;5070277;28;20070;-86
2022/12/07 11:58:49;;;;;;;3.25;1.00;;;4.30;99.90;;;;;;5062155;28;20051;-86
2022/12/07 12:01:34;;;;;;;4.10;1.00;;;4.30;99.90;;;;;;5099751;28;20071;-85
2022/12/07 12:04:09;;;;;;;1.63;1.08;;;4.30;99.90;;;;;;5046439;28;20056;-85
2022/12/07 12:06:36;;;;;;;3.42;1.23;;;4.40;99.90;;;;;;5094542;28;20418;-86
2022/12/07 12:09:11;;;;;;;4.55;1.42;;;4.50;99.90;;;;;;5078932;28;20055;-86
2022/12/07 12:11:55;;;;;;;4.70;2.20;;;5.10;99.90;;;;;;5062076;28;20054;-87
2022/12/07 12:14:45;;;;;;;3.20;1.60;;;4.50;99.90;;;;;;5094544;28;20063;-86
2022/12/07 12:17:33;;;;;;;3.60;1.80;;;4.70;99.90;;;;;;5095133;28;20521;-91
2022/12/07 12:19:59;;;;;;;5.40;1.75;;;4.80;99.90;;;;;;5094537;28;20127;-89
2022/12/07 12:22:34;;;;;;;5.40;2.30;;;4.90;99.90;;;;;;5094945;28;21032;-88
2022/12/07 12:24:59;;;;;;;2.45;1.17;;;4.90;99.90;;;;;;5078605;28;20059;-89
2022/12/07 12:27:30;;;;;;;5.82;2.38;;;5.90;99.90;;;;;;5104773;28;20043;-90
2022/12/07 12:29:58;;;;;;;5.07;1.70;;;5.00;99.90;;;;;;5100244;28;20062;-89
2022/12/07 12:32:40;;;;;;;5.65;1.50;;;4.90;99.90;;;;;;5118573;28;20031;-88
2022/12/07 12:35:27;;;;;;;4.30;1.40;;;4.90;99.90;;;;;;5072678;28;20189;-88
2022/12/07 12:37:54;;;;;;;4.72;1.45;;;4.90;99.90;;;;;;5119832;28;20086;-87
2022/12/07 12:40:20;;;;;;;2.03;1.40;;;4.90;99.90;;;;;;5100003;28;20083;-87
2022/12/07 12:42:47;;;;;;;5.13;1.88;;;4.90;99.90;;;;;;5132790;28;20352;-87
2022/12/07 12:45:21;;;;;;;9.93;1.80;;;5.00;99.90;;;;;;5066461;28;20048;-88
2022/12/07 12:47:57;;;;;;;4.70;1.90;;;4.80;99.90;;;;;;5102314;28;20069;-88
2022/12/07 12:50:24;;;;;;;3.05;1.40;;;4.80;99.90;;;;;;5092254;28;20130;-89
2022/12/07 12:52:55;;;;;;;6.35;2.33;;;4.80;99.90;;;;;;5086641;28;20047;-89
2022/12/07 12:55:27;;;;;;;3.83;2.00;;;4.70;99.90;;;;;;5085349;28;20843;-88
2022/12/07 12:58:17;;;;;;;8.35;2.30;;;4.70;99.90;;;;;;5064548;28;20050;-89
2022/12/07 13:00:43;;;;;;;11.00;2.10;;;4.70;99.90;;;;;;5114115;28;20036;-88
2022/12/07 13:03:25;;;;;;;7.57;1.90;;;4.70;99.90;;;;;;5113281;28;20471;-89
2022/12/07 13:06:19;;;;;;;4.80;1.95;;;4.70;99.90;;;;;;5079567;28;20056;-88
2022/12/07 13:08:44;;;;;;;7.22;2.63;;;4.80;99.90;;;;;;5098644;28;20048;-89
2022/12/07 13:11:18;;;;;;;9.77;2.53;;;5.30;99.90;;;;;;5078933;28;20040;-91
2022/12/07 13:13:44;;;;;;;8.15;2.60;;;4.80;99.90;;;;;;5079480;28;20367;-92